Portada
METAR-TAF:

METAR-TAF

Aeropuertos :

Albacete, España

Aeropuerto de Albacete

latitud: 38-57N, longitud: 001-51W, altitud: 702 m

Observación

El informe se hizo hace 52 minutos, a las 22:00 UTC
Viento 10 kt del sur-sureste
Temperatura 22°C
Humedad 69%
Presión 1022 hPa
Visibilidad 10 km o más
sin nubes por debajo de 1500 m y sin presencia de cumulonimbus.

METAR: LEAB 202200Z 16010KT CAVOK 22/16 Q1022 NOSIG

Hora: 00:52 (22:52 UTC)

Pronóstico

El informe se hizo hace 2 horas y 52 minutos, a las 20:00 UTC
Pronóstico válido del 20 a las 21 UTC al 21 a las 06 UTC
Viento 10 kt del sur
Visibilidad 10 km o más
sin nubes por debajo de 1500 m y sin presencia de cumulonimbus.

TAF: LEAB 202000Z 2021/2106 18010KT CAVOK

Observaciones y pronósticos meteorológicos de más de 4000 aeropuertos (mensajes METAR y TAF).

Los puntos amarillos y rojos representan las estaciones disponibles.

Ponga el ratón en el punto deseado para ver el nombre de la estación.

Haga clic para ver las observaciones y los pronósticos meteorológicos.

Para cambiar el mapa : haga clic en los botones verdes con una cruz de color negro para hacer un zoom, en el botón verde con un guión para alejar o en las flechas verdes para mapas adyacentes.


METAR-TAF: